sensor_id;sensor_type;location;lat;lon;timestamp;P1;durP1;ratioP1;P2;durP2;ratioP2
30872;SDS011;17579;42.690;2.586;2023-06-26T00:02:30;11.25;;;10.05;;
30872;SDS011;17579;42.690;2.586;2023-06-26T00:04:58;10.48;;;9.35;;
30872;SDS011;17579;42.690;2.586;2023-06-26T00:07:27;11.38;;;10.13;;
30872;SDS011;17579;42.690;2.586;2023-06-26T00:13:07;10.57;;;9.48;;
30872;SDS011;17579;42.690;2.586;2023-06-26T00:15:37;11.45;;;9.43;;
30872;SDS011;17579;42.690;2.586;2023-06-26T00:18:28;11.25;;;10.13;;
30872;SDS011;17579;42.690;2.586;2023-06-26T00:21:04;10.43;;;9.43;;
30872;SDS011;17579;42.690;2.586;2023-06-26T00:23:30;12.02;;;10.07;;
30872;SDS011;17579;42.690;2.586;2023-06-26T00:26:06;11.85;;;10.65;;
30872;SDS011;17579;42.690;2.586;2023-06-26T00:28:34;11.35;;;9.98;;
30872;SDS011;17579;42.690;2.586;2023-06-26T00:31:03;10.43;;;9.35;;
30872;SDS011;17579;42.690;2.586;2023-06-26T00:33:34;11.52;;;10.32;;
30872;SDS011;17579;42.690;2.586;2023-06-26T00:36:03;12.18;;;10.48;;
30872;SDS011;17579;42.690;2.586;2023-06-26T00:38:34;10.93;;;9.82;;
30872;SDS011;17579;42.690;2.586;2023-06-26T00:41:05;11.27;;;10.18;;
30872;SDS011;17579;42.690;2.586;2023-06-26T00:43:37;11.23;;;10.07;;
30872;SDS011;17579;42.690;2.586;2023-06-26T00:46:04;10.45;;;9.35;;
30872;SDS011;17579;42.690;2.586;2023-06-26T00:48:39;10.10;;;8.95;;
30872;SDS011;17579;42.690;2.586;2023-06-26T00:51:09;12.98;;;10.52;;
30872;SDS011;17579;42.690;2.586;2023-06-26T00:53:55;11.85;;;10.65;;
30872;SDS011;17579;42.690;2.586;2023-06-26T00:56:22;10.55;;;9.45;;
30872;SDS011;17579;42.690;2.586;2023-06-26T00:58:49;9.98;;;8.98;;
30872;SDS011;17579;42.690;2.586;2023-06-26T01:01:15;10.85;;;9.30;;
30872;SDS011;17579;42.690;2.586;2023-06-26T01:03:50;11.80;;;10.57;;
30872;SDS011;17579;42.690;2.586;2023-06-26T01:06:20;10.55;;;9.48;;
30872;SDS011;17579;42.690;2.586;2023-06-26T01:08:49;10.68;;;9.68;;
30872;SDS011;17579;42.690;2.586;2023-06-26T01:11:16;13.50;;;10.38;;
30872;SDS011;17579;42.690;2.586;2023-06-26T01:13:43;11.43;;;10.13;;
30872;SDS011;17579;42.690;2.586;2023-06-26T01:16:29;10.95;;;9.85;;
30872;SDS011;17579;42.690;2.586;2023-06-26T01:19:00;11.18;;;10.00;;
30872;SDS011;17579;42.690;2.586;2023-06-26T01:21:26;11.20;;;10.10;;
30872;SDS011;17579;42.690;2.586;2023-06-26T01:24:00;10.65;;;9.55;;
30872;SDS011;17579;42.690;2.586;2023-06-26T01:26:34;11.18;;;10.00;;
30872;SDS011;17579;42.690;2.586;2023-06-26T01:29:02;10.55;;;9.45;;
30872;SDS011;17579;42.690;2.586;2023-06-26T01:31:32;10.82;;;9.82;;
30872;SDS011;17579;42.690;2.586;2023-06-26T01:34:05;11.25;;;10.15;;
30872;SDS011;17579;42.690;2.586;2023-06-26T01:36:34;11.35;;;10.13;;
30872;SDS011;17579;42.690;2.586;2023-06-26T01:39:09;10.73;;;9.63;;
30872;SDS011;17579;42.690;2.586;2023-06-26T01:41:43;10.75;;;9.55;;
30872;SDS011;17579;42.690;2.586;2023-06-26T01:44:23;11.45;;;10.38;;
30872;SDS011;17579;42.690;2.586;2023-06-26T01:46:59;11.32;;;10.13;;
30872;SDS011;17579;42.690;2.586;2023-06-26T01:49:47;10.73;;;9.73;;
30872;SDS011;17579;42.690;2.586;2023-06-26T01:55:24;12.57;;;9.85;;
30872;SDS011;17579;42.690;2.586;2023-06-26T01:58:03;10.40;;;9.40;;
30872;SDS011;17579;42.690;2.586;2023-06-26T02:00:29;10.38;;;9.35;;
30872;SDS011;17579;42.690;2.586;2023-06-26T02:03:01;10.82;;;9.48;;
30872;SDS011;17579;42.690;2.586;2023-06-26T02:05:31;11.88;;;9.25;;
30872;SDS011;17579;42.690;2.586;2023-06-26T02:08:00;10.15;;;9.07;;
30872;SDS011;17579;42.690;2.586;2023-06-26T02:10:31;11.45;;;9.50;;
30872;SDS011;17579;42.690;2.586;2023-06-26T02:16:25;10.00;;;9.10;;
30872;SDS011;17579;42.690;2.586;2023-06-26T02:18:54;10.05;;;9.05;;
30872;SDS011;17579;42.690;2.586;2023-06-26T02:21:25;11.55;;;10.30;;
30872;SDS011;17579;42.690;2.586;2023-06-26T02:24:31;12.00;;;10.32;;
30872;SDS011;17579;42.690;2.586;2023-06-26T02:26:39;11.25;;;10.00;;
30872;SDS011;17579;42.690;2.586;2023-06-26T02:29:11;10.32;;;9.25;;
30872;SDS011;17579;42.690;2.586;2023-06-26T02:31:39;11.07;;;9.98;;
30872;SDS011;17579;42.690;2.586;2023-06-26T02:34:23;11.15;;;9.27;;
30872;SDS011;17579;42.690;2.586;2023-06-26T02:36:51;10.15;;;9.15;;
30872;SDS011;17579;42.690;2.586;2023-06-26T02:39:22;11.38;;;9.50;;
30872;SDS011;17579;42.690;2.586;2023-06-26T02:41:48;10.15;;;9.15;;
30872;SDS011;17579;42.690;2.586;2023-06-26T02:44:15;11.57;;;10.38;;
30872;SDS011;17579;42.690;2.586;2023-06-26T02:46:44;10.73;;;9.63;;
30872;SDS011;17579;42.690;2.586;2023-06-26T02:49:10;11.57;;;8.77;;
30872;SDS011;17579;42.690;2.586;2023-06-26T02:51:36;12.02;;;9.85;;
30872;SDS011;17579;42.690;2.586;2023-06-26T02:54:06;10.85;;;9.45;;
30872;SDS011;17579;42.690;2.586;2023-06-26T02:56:52;11.20;;;9.48;;
30872;SDS011;17579;42.690;2.586;2023-06-26T02:59:28;11.13;;;10.00;;
30872;SDS011;17579;42.690;2.586;2023-06-26T03:01:54;10.50;;;9.15;;
30872;SDS011;17579;42.690;2.586;2023-06-26T03:04:22;10.35;;;9.25;;
30872;SDS011;17579;42.690;2.586;2023-06-26T03:07:13;10.70;;;9.60;;
30872;SDS011;17579;42.690;2.586;2023-06-26T03:09:41;10.85;;;9.85;;
30872;SDS011;17579;42.690;2.586;2023-06-26T03:12:12;10.80;;;9.75;;
30872;SDS011;17579;42.690;2.586;2023-06-26T03:14:41;10.75;;;9.65;;
30872;SDS011;17579;42.690;2.586;2023-06-26T03:17:07;10.27;;;9.00;;
30872;SDS011;17579;42.690;2.586;2023-06-26T03:22:21;10.02;;;8.80;;
30872;SDS011;17579;42.690;2.586;2023-06-26T03:24:51;9.57;;;8.50;;
30872;SDS011;17579;42.690;2.586;2023-06-26T03:27:19;11.95;;;8.65;;
30872;SDS011;17579;42.690;2.586;2023-06-26T03:29:46;10.20;;;9.18;;
30872;SDS011;17579;42.690;2.586;2023-06-26T03:32:19;9.95;;;8.93;;
30872;SDS011;17579;42.690;2.586;2023-06-26T03:34:45;10.50;;;8.75;;
30872;SDS011;17579;42.690;2.586;2023-06-26T03:37:21;9.65;;;7.80;;
30872;SDS011;17579;42.690;2.586;2023-06-26T03:39:52;12.13;;;9.65;;
30872;SDS011;17579;42.690;2.586;2023-06-26T03:42:20;10.07;;;9.07;;
30872;SDS011;17579;42.690;2.586;2023-06-26T03:44:47;10.10;;;8.43;;
30872;SDS011;17579;42.690;2.586;2023-06-26T03:50:30;12.35;;;9.65;;
30872;SDS011;17579;42.690;2.586;2023-06-26T03:52:56;11.60;;;8.57;;
30872;SDS011;17579;42.690;2.586;2023-06-26T03:55:24;10.20;;;8.45;;
30872;SDS011;17579;42.690;2.586;2023-06-26T04:00:43;10.27;;;8.70;;
30872;SDS011;17579;42.690;2.586;2023-06-26T04:03:09;10.18;;;8.10;;
30872;SDS011;17579;42.690;2.586;2023-06-26T04:05:37;9.95;;;7.50;;
30872;SDS011;17579;42.690;2.586;2023-06-26T04:08:10;9.40;;;8.40;;
30872;SDS011;17579;42.690;2.586;2023-06-26T04:10:46;8.35;;;7.45;;
30872;SDS011;17579;42.690;2.586;2023-06-26T04:13:17;8.15;;;7.20;;
30872;SDS011;17579;42.690;2.586;2023-06-26T04:15:48;8.45;;;7.50;;
30872;SDS011;17579;42.690;2.586;2023-06-26T04:18:16;8.93;;;7.63;;
30872;SDS011;17579;42.690;2.586;2023-06-26T04:24:44;10.35;;;8.48;;
30872;SDS011;17579;42.690;2.586;2023-06-26T04:26:14;9.13;;;7.40;;
30872;SDS011;17579;42.690;2.586;2023-06-26T04:28:40;10.18;;;8.00;;
30872;SDS011;17579;42.690;2.586;2023-06-26T04:31:09;8.88;;;8.05;;
30872;SDS011;17579;42.690;2.586;2023-06-26T04:33:35;10.27;;;8.10;;
30872;SDS011;17579;42.690;2.586;2023-06-26T04:36:04;10.30;;;7.70;;
30872;SDS011;17579;42.690;2.586;2023-06-26T04:38:31;9.05;;;7.40;;
30872;SDS011;17579;42.690;2.586;2023-06-26T04:41:00;8.50;;;7.60;;
30872;SDS011;17579;42.690;2.586;2023-06-26T04:43:26;10.55;;;8.23;;
30872;SDS011;17579;42.690;2.586;2023-06-26T04:45:58;10.85;;;7.75;;
30872;SDS011;17579;42.690;2.586;2023-06-26T04:48:26;9.18;;;8.00;;
30872;SDS011;17579;42.690;2.586;2023-06-26T04:50:55;9.10;;;7.75;;
30872;SDS011;17579;42.690;2.586;2023-06-26T04:53:21;9.48;;;7.85;;
30872;SDS011;17579;42.690;2.586;2023-06-26T04:55:55;8.98;;;7.72;;
30872;SDS011;17579;42.690;2.586;2023-06-26T04:58:23;9.68;;;7.93;;
30872;SDS011;17579;42.690;2.586;2023-06-26T05:00:49;8.50;;;7.60;;
30872;SDS011;17579;42.690;2.586;2023-06-26T05:03:25;8.43;;;6.82;;
30872;SDS011;17579;42.690;2.586;2023-06-26T05:05:51;11.88;;;7.13;;
30872;SDS011;17579;42.690;2.586;2023-06-26T05:08:20;7.80;;;6.97;;
30872;SDS011;17579;42.690;2.586;2023-06-26T05:10:54;8.23;;;7.10;;
30872;SDS011;17579;42.690;2.586;2023-06-26T05:13:31;11.32;;;7.32;;
30872;SDS011;17579;42.690;2.586;2023-06-26T05:16:02;8.50;;;6.90;;
30872;SDS011;17579;42.690;2.586;2023-06-26T05:18:36;7.15;;;6.45;;
30872;SDS011;17579;42.690;2.586;2023-06-26T05:21:05;8.73;;;7.30;;
30872;SDS011;17579;42.690;2.586;2023-06-26T05:23:34;7.75;;;6.97;;
30872;SDS011;17579;42.690;2.586;2023-06-26T05:26:10;7.63;;;6.63;;
30872;SDS011;17579;42.690;2.586;2023-06-26T05:28:38;8.10;;;7.30;;
30872;SDS011;17579;42.690;2.586;2023-06-26T05:31:14;9.30;;;7.15;;
30872;SDS011;17579;42.690;2.586;2023-06-26T05:34:00;7.28;;;6.57;;
30872;SDS011;17579;42.690;2.586;2023-06-26T05:36:38;7.50;;;6.28;;
30872;SDS011;17579;42.690;2.586;2023-06-26T05:39:20;7.03;;;5.78;;
30872;SDS011;17579;42.690;2.586;2023-06-26T05:41:48;6.50;;;5.78;;
30872;SDS011;17579;42.690;2.586;2023-06-26T05:44:14;7.93;;;6.35;;
30872;SDS011;17579;42.690;2.586;2023-06-26T05:46:42;7.32;;;6.40;;
30872;SDS011;17579;42.690;2.586;2023-06-26T05:49:08;6.40;;;5.80;;
30872;SDS011;17579;42.690;2.586;2023-06-26T05:51:34;6.43;;;5.72;;
30872;SDS011;17579;42.690;2.586;2023-06-26T05:54:08;7.35;;;6.10;;
30872;SDS011;17579;42.690;2.586;2023-06-26T05:56:41;6.50;;;5.90;;
30872;SDS011;17579;42.690;2.586;2023-06-26T05:59:18;6.55;;;5.80;;
30872;SDS011;17579;42.690;2.586;2023-06-26T06:02:02;6.15;;;5.55;;
30872;SDS011;17579;42.690;2.586;2023-06-26T06:04:30;6.07;;;5.28;;
30872;SDS011;17579;42.690;2.586;2023-06-26T06:06:59;6.45;;;5.85;;
30872;SDS011;17579;42.690;2.586;2023-06-26T06:09:30;6.05;;;5.07;;
30872;SDS011;17579;42.690;2.586;2023-06-26T06:11:59;5.30;;;4.80;;
30872;SDS011;17579;42.690;2.586;2023-06-26T06:14:26;7.18;;;5.40;;
30872;SDS011;17579;42.690;2.586;2023-06-26T06:16:54;5.78;;;5.18;;
30872;SDS011;17579;42.690;2.586;2023-06-26T06:19:40;5.28;;;4.78;;
30872;SDS011;17579;42.690;2.586;2023-06-26T06:22:10;5.40;;;4.85;;
30872;SDS011;17579;42.690;2.586;2023-06-26T06:24:38;6.30;;;5.70;;
30872;SDS011;17579;42.690;2.586;2023-06-26T06:27:04;5.25;;;4.63;;
30872;SDS011;17579;42.690;2.586;2023-06-26T06:29:32;5.85;;;4.60;;
30872;SDS011;17579;42.690;2.586;2023-06-26T06:32:08;5.68;;;4.97;;
30872;SDS011;17579;42.690;2.586;2023-06-26T06:34:34;9.65;;;5.18;;
30872;SDS011;17579;42.690;2.586;2023-06-26T06:37:25;5.47;;;4.82;;
30872;SDS011;17579;42.690;2.586;2023-06-26T06:39:56;4.50;;;4.10;;
30872;SDS011;17579;42.690;2.586;2023-06-26T06:42:24;5.57;;;4.28;;
30872;SDS011;17579;42.690;2.586;2023-06-26T06:44:50;4.82;;;4.28;;
30872;SDS011;17579;42.690;2.586;2023-06-26T06:47:16;4.07;;;3.67;;
30872;SDS011;17579;42.690;2.586;2023-06-26T06:49:44;4.32;;;3.92;;
30872;SDS011;17579;42.690;2.586;2023-06-26T06:52:09;4.00;;;3.70;;
30872;SDS011;17579;42.690;2.586;2023-06-26T06:57:07;4.32;;;3.85;;
30872;SDS011;17579;42.690;2.586;2023-06-26T06:59:45;4.38;;;3.67;;
30872;SDS011;17579;42.690;2.586;2023-06-26T07:02:14;3.60;;;3.30;;
30872;SDS011;17579;42.690;2.586;2023-06-26T07:04:41;4.18;;;3.88;;
30872;SDS011;17579;42.690;2.586;2023-06-26T07:07:09;3.53;;;3.22;;
30872;SDS011;17579;42.690;2.586;2023-06-26T07:10:05;3.95;;;3.65;;
30872;SDS011;17579;42.690;2.586;2023-06-26T07:12:41;4.20;;;3.80;;
30872;SDS011;17579;42.690;2.586;2023-06-26T07:15:09;3.05;;;2.75;;
30872;SDS011;17579;42.690;2.586;2023-06-26T07:17:46;3.40;;;3.10;;
30872;SDS011;17579;42.690;2.586;2023-06-26T07:20:20;3.78;;;3.38;;
30872;SDS011;17579;42.690;2.586;2023-06-26T07:23:06;3.28;;;2.90;;
30872;SDS011;17579;42.690;2.586;2023-06-26T07:25:35;3.80;;;3.38;;
30872;SDS011;17579;42.690;2.586;2023-06-26T07:28:05;3.97;;;3.35;;
30872;SDS011;17579;42.690;2.586;2023-06-26T07:30:41;3.50;;;3.20;;
30872;SDS011;17579;42.690;2.586;2023-06-26T07:33:09;3.33;;;3.08;;
30872;SDS011;17579;42.690;2.586;2023-06-26T07:35:35;3.33;;;3.03;;
30872;SDS011;17579;42.690;2.586;2023-06-26T07:38:00;3.75;;;3.33;;
30872;SDS011;17579;42.690;2.586;2023-06-26T07:40:33;3.78;;;3.38;;
30872;SDS011;17579;42.690;2.586;2023-06-26T07:43:10;3.50;;;3.20;;
30872;SDS011;17579;42.690;2.586;2023-06-26T07:45:37;4.47;;;4.05;;
30872;SDS011;17579;42.690;2.586;2023-06-26T07:48:08;4.03;;;3.65;;
30872;SDS011;17579;42.690;2.586;2023-06-26T07:50:37;3.38;;;3.08;;
30872;SDS011;17579;42.690;2.586;2023-06-26T07:56:05;3.83;;;3.53;;
30872;SDS011;17579;42.690;2.586;2023-06-26T07:58:31;3.75;;;3.45;;
30872;SDS011;17579;42.690;2.586;2023-06-26T08:01:05;3.30;;;2.97;;
30872;SDS011;17579;42.690;2.586;2023-06-26T08:03:40;3.85;;;3.55;;
30872;SDS011;17579;42.690;2.586;2023-06-26T08:06:18;4.45;;;3.88;;
30872;SDS011;17579;42.690;2.586;2023-06-26T08:08:55;4.32;;;3.92;;
30872;SDS011;17579;42.690;2.586;2023-06-26T08:11:39;3.28;;;3.08;;
30872;SDS011;17579;42.690;2.586;2023-06-26T08:14:07;3.67;;;3.38;;
30872;SDS011;17579;42.690;2.586;2023-06-26T08:16:41;3.80;;;3.50;;
30872;SDS011;17579;42.690;2.586;2023-06-26T08:19:11;4.25;;;3.78;;
30872;SDS011;17579;42.690;2.586;2023-06-26T08:21:39;4.00;;;3.63;;
30872;SDS011;17579;42.690;2.586;2023-06-26T08:27:02;3.70;;;3.40;;
30872;SDS011;17579;42.690;2.586;2023-06-26T08:29:50;3.88;;;3.58;;
30872;SDS011;17579;42.690;2.586;2023-06-26T08:32:19;3.97;;;3.67;;
30872;SDS011;17579;42.690;2.586;2023-06-26T08:34:47;3.75;;;3.45;;
30872;SDS011;17579;42.690;2.586;2023-06-26T08:37:33;4.38;;;4.07;;
30872;SDS011;17579;42.690;2.586;2023-06-26T08:40:01;3.65;;;3.35;;
30872;SDS011;17579;42.690;2.586;2023-06-26T08:42:36;3.70;;;3.42;;
30872;SDS011;17579;42.690;2.586;2023-06-26T08:45:16;4.20;;;3.90;;
30872;SDS011;17579;42.690;2.586;2023-06-26T08:47:56;3.53;;;3.30;;
30872;SDS011;17579;42.690;2.586;2023-06-26T08:50:30;4.13;;;3.72;;
30872;SDS011;17579;42.690;2.586;2023-06-26T08:53:01;4.10;;;3.80;;
30872;SDS011;17579;42.690;2.586;2023-06-26T08:58:38;4.05;;;3.75;;
30872;SDS011;17579;42.690;2.586;2023-06-26T09:01:07;3.83;;;3.53;;
30872;SDS011;17579;42.690;2.586;2023-06-26T09:03:43;3.80;;;3.50;;
30872;SDS011;17579;42.690;2.586;2023-06-26T09:06:37;3.90;;;3.53;;
30872;SDS011;17579;42.690;2.586;2023-06-26T09:09:04;3.67;;;3.38;;
30872;SDS011;17579;42.690;2.586;2023-06-26T09:11:40;4.00;;;3.70;;
30872;SDS011;17579;42.690;2.586;2023-06-26T09:14:23;4.10;;;3.70;;
30872;SDS011;17579;42.690;2.586;2023-06-26T09:16:49;3.80;;;3.50;;
30872;SDS011;17579;42.690;2.586;2023-06-26T09:19:15;3.97;;;3.67;;
30872;SDS011;17579;42.690;2.586;2023-06-26T09:21:42;4.20;;;3.90;;
30872;SDS011;17579;42.690;2.586;2023-06-26T09:24:16;4.18;;;3.78;;
30872;SDS011;17579;42.690;2.586;2023-06-26T09:26:54;4.00;;;3.60;;
30872;SDS011;17579;42.690;2.586;2023-06-26T09:29:31;4.10;;;3.80;;
30872;SDS011;17579;42.690;2.586;2023-06-26T09:32:00;4.28;;;3.88;;
30872;SDS011;17579;42.690;2.586;2023-06-26T09:34:51;3.88;;;3.58;;
30872;SDS011;17579;42.690;2.586;2023-06-26T09:37:18;3.90;;;3.60;;
30872;SDS011;17579;42.690;2.586;2023-06-26T09:39:44;3.70;;;3.30;;
30872;SDS011;17579;42.690;2.586;2023-06-26T09:42:10;3.40;;;3.10;;
30872;SDS011;17579;42.690;2.586;2023-06-26T09:47:09;4.80;;;3.53;;
30872;SDS011;17579;42.690;2.586;2023-06-26T09:50:02;3.72;;;3.53;;
30872;SDS011;17579;42.690;2.586;2023-06-26T09:52:50;3.45;;;3.15;;
30872;SDS011;17579;42.690;2.586;2023-06-26T09:55:19;3.63;;;3.30;;
30872;SDS011;17579;42.690;2.586;2023-06-26T09:57:56;3.50;;;3.20;;
30872;SDS011;17579;42.690;2.586;2023-06-26T10:00:30;3.78;;;3.47;;
30872;SDS011;17579;42.690;2.586;2023-06-26T10:02:59;3.45;;;3.15;;
30872;SDS011;17579;42.690;2.586;2023-06-26T10:05:26;3.28;;;3.08;;
30872;SDS011;17579;42.690;2.586;2023-06-26T10:07:52;3.00;;;2.80;;
30872;SDS011;17579;42.690;2.586;2023-06-26T10:10:30;3.40;;;3.10;;
30872;SDS011;17579;42.690;2.586;2023-06-26T10:13:06;4.75;;;3.20;;
30872;SDS011;17579;42.690;2.586;2023-06-26T10:15:39;3.40;;;3.10;;
30872;SDS011;17579;42.690;2.586;2023-06-26T10:18:12;3.58;;;3.28;;
30872;SDS011;17579;42.690;2.586;2023-06-26T10:20:40;3.83;;;3.53;;
30872;SDS011;17579;42.690;2.586;2023-06-26T10:23:29;3.65;;;3.38;;
30872;SDS011;17579;42.690;2.586;2023-06-26T10:25:58;3.53;;;3.28;;
30872;SDS011;17579;42.690;2.586;2023-06-26T10:28:33;3.92;;;3.58;;
30872;SDS011;17579;42.690;2.586;2023-06-26T10:31:25;3.20;;;3.00;;
30872;SDS011;17579;42.690;2.586;2023-06-26T10:33:54;4.28;;;3.53;;
30872;SDS011;17579;42.690;2.586;2023-06-26T10:36:27;3.78;;;3.47;;
30872;SDS011;17579;42.690;2.586;2023-06-26T10:41:54;3.78;;;3.25;;
30872;SDS011;17579;42.690;2.586;2023-06-26T10:44:29;3.70;;;3.40;;
30872;SDS011;17579;42.690;2.586;2023-06-26T10:47:28;3.55;;;3.25;;
30872;SDS011;17579;42.690;2.586;2023-06-26T10:55:35;3.47;;;3.17;;
30872;SDS011;17579;42.690;2.586;2023-06-26T10:58:05;3.80;;;3.50;;
30872;SDS011;17579;42.690;2.586;2023-06-26T11:01:13;3.88;;;3.45;;
30872;SDS011;17579;42.690;2.586;2023-06-26T11:04:05;4.38;;;3.95;;
30872;SDS011;17579;42.690;2.586;2023-06-26T11:06:50;4.25;;;3.85;;
30872;SDS011;17579;42.690;2.586;2023-06-26T11:09:37;3.75;;;3.42;;
30872;SDS011;17579;42.690;2.586;2023-06-26T11:14:46;3.85;;;3.55;;
30872;SDS011;17579;42.690;2.586;2023-06-26T11:17:25;3.75;;;3.45;;
30872;SDS011;17579;42.690;2.586;2023-06-26T11:19:54;4.68;;;4.28;;
30872;SDS011;17579;42.690;2.586;2023-06-26T11:22:20;4.05;;;3.75;;
30872;SDS011;17579;42.690;2.586;2023-06-26T11:24:49;3.92;;;3.63;;
30872;SDS011;17579;42.690;2.586;2023-06-26T11:27:24;4.20;;;3.65;;
30872;SDS011;17579;42.690;2.586;2023-06-26T11:30:01;4.15;;;3.75;;
30872;SDS011;17579;42.690;2.586;2023-06-26T11:32:33;3.83;;;3.30;;
30872;SDS011;17579;42.690;2.586;2023-06-26T11:35:25;3.92;;;3.63;;
30872;SDS011;17579;42.690;2.586;2023-06-26T11:37:58;4.50;;;4.10;;
30872;SDS011;17579;42.690;2.586;2023-06-26T11:40:27;3.75;;;3.50;;
30872;SDS011;17579;42.690;2.586;2023-06-26T11:42:59;3.50;;;3.30;;
30872;SDS011;17579;42.690;2.586;2023-06-26T11:47:54;3.78;;;3.47;;
30872;SDS011;17579;42.690;2.586;2023-06-26T11:50:21;3.53;;;3.22;;
30872;SDS011;17579;42.690;2.586;2023-06-26T11:52:59;4.20;;;3.90;;
30872;SDS011;17579;42.690;2.586;2023-06-26T11:55:40;4.00;;;3.70;;
30872;SDS011;17579;42.690;2.586;2023-06-26T11:58:30;4.38;;;3.97;;
30872;SDS011;17579;42.690;2.586;2023-06-26T12:01:23;4.22;;;3.83;;
30872;SDS011;17579;42.690;2.586;2023-06-26T12:03:50;4.30;;;3.90;;
30872;SDS011;17579;42.690;2.586;2023-06-26T12:06:28;4.35;;;3.95;;
30872;SDS011;17579;42.690;2.586;2023-06-26T12:08:56;4.47;;;4.07;;
30872;SDS011;17579;42.690;2.586;2023-06-26T12:11:26;4.63;;;3.83;;
30872;SDS011;17579;42.690;2.586;2023-06-26T12:13:56;4.95;;;4.45;;
30872;SDS011;17579;42.690;2.586;2023-06-26T12:16:22;4.00;;;3.70;;
30872;SDS011;17579;42.690;2.586;2023-06-26T12:18:51;4.45;;;3.90;;
30872;SDS011;17579;42.690;2.586;2023-06-26T12:21:48;4.70;;;4.15;;
30872;SDS011;17579;42.690;2.586;2023-06-26T12:24:22;4.35;;;4.03;;
30872;SDS011;17579;42.690;2.586;2023-06-26T12:27:01;4.28;;;3.90;;
30872;SDS011;17579;42.690;2.586;2023-06-26T12:32:08;3.88;;;3.58;;
30872;SDS011;17579;42.690;2.586;2023-06-26T12:34:36;4.20;;;3.70;;
30872;SDS011;17579;42.690;2.586;2023-06-26T12:37:11;4.32;;;4.00;;
30872;SDS011;17579;42.690;2.586;2023-06-26T12:42:28;4.22;;;3.83;;
30872;SDS011;17579;42.690;2.586;2023-06-26T12:47:34;4.20;;;3.88;;
30872;SDS011;17579;42.690;2.586;2023-06-26T12:50:06;4.65;;;4.25;;
30872;SDS011;17579;42.690;2.586;2023-06-26T12:52:41;4.75;;;4.35;;
30872;SDS011;17579;42.690;2.586;2023-06-26T12:55:14;4.40;;;4.10;;
30872;SDS011;17579;42.690;2.586;2023-06-26T12:57:48;4.03;;;3.70;;
30872;SDS011;17579;42.690;2.586;2023-06-26T13:00:16;4.45;;;3.97;;
30872;SDS011;17579;42.690;2.586;2023-06-26T13:02:45;4.20;;;3.90;;
30872;SDS011;17579;42.690;2.586;2023-06-26T13:05:14;5.25;;;4.15;;
30872;SDS011;17579;42.690;2.586;2023-06-26T13:07:47;4.18;;;3.78;;
30872;SDS011;17579;42.690;2.586;2023-06-26T13:10:21;4.70;;;4.22;;
30872;SDS011;17579;42.690;2.586;2023-06-26T13:13:10;4.18;;;3.83;;
30872;SDS011;17579;42.690;2.586;2023-06-26T13:15:49;3.95;;;3.65;;
30872;SDS011;17579;42.690;2.586;2023-06-26T13:18:17;4.70;;;4.30;;
30872;SDS011;17579;42.690;2.586;2023-06-26T13:20:55;4.22;;;3.90;;
30872;SDS011;17579;42.690;2.586;2023-06-26T13:23:30;4.15;;;3.78;;
30872;SDS011;17579;42.690;2.586;2023-06-26T13:25:59;4.90;;;4.30;;
30872;SDS011;17579;42.690;2.586;2023-06-26T13:28:32;4.80;;;4.38;;
30872;SDS011;17579;42.690;2.586;2023-06-26T13:31:04;4.55;;;4.25;;
30872;SDS011;17579;42.690;2.586;2023-06-26T13:33:30;4.30;;;3.85;;
30872;SDS011;17579;42.690;2.586;2023-06-26T13:36:07;4.03;;;3.72;;
30872;SDS011;17579;42.690;2.586;2023-06-26T13:38:35;4.13;;;3.78;;
30872;SDS011;17579;42.690;2.586;2023-06-26T13:41:01;4.35;;;3.95;;
30872;SDS011;17579;42.690;2.586;2023-06-26T13:44:21;4.47;;;4.18;;
30872;SDS011;17579;42.690;2.586;2023-06-26T13:46:49;6.28;;;4.38;;
30872;SDS011;17579;42.690;2.586;2023-06-26T13:49:15;4.25;;;3.85;;
30872;SDS011;17579;42.690;2.586;2023-06-26T13:51:51;4.22;;;3.83;;
30872;SDS011;17579;42.690;2.586;2023-06-26T13:54:19;4.18;;;3.88;;
30872;SDS011;17579;42.690;2.586;2023-06-26T13:56:58;4.70;;;4.22;;
30872;SDS011;17579;42.690;2.586;2023-06-26T13:59:36;4.45;;;4.03;;
30872;SDS011;17579;42.690;2.586;2023-06-26T14:02:31;3.97;;;3.53;;
30872;SDS011;17579;42.690;2.586;2023-06-26T14:05:11;4.28;;;3.88;;
30872;SDS011;17579;42.690;2.586;2023-06-26T14:07:56;3.92;;;3.63;;
30872;SDS011;17579;42.690;2.586;2023-06-26T14:10:24;3.83;;;3.53;;
30872;SDS011;17579;42.690;2.586;2023-06-26T14:12:55;5.05;;;4.15;;
30872;SDS011;17579;42.690;2.586;2023-06-26T14:15:21;4.60;;;4.00;;
30872;SDS011;17579;42.690;2.586;2023-06-26T14:17:54;4.28;;;3.88;;
30872;SDS011;17579;42.690;2.586;2023-06-26T14:20:23;3.70;;;3.40;;
30872;SDS011;17579;42.690;2.586;2023-06-26T14:22:49;4.07;;;3.60;;
30872;SDS011;17579;42.690;2.586;2023-06-26T14:25:28;5.80;;;3.72;;
30872;SDS011;17579;42.690;2.586;2023-06-26T14:27:57;3.78;;;3.47;;
30872;SDS011;17579;42.690;2.586;2023-06-26T14:30:34;4.10;;;3.70;;
30872;SDS011;17579;42.690;2.586;2023-06-26T14:33:05;5.88;;;3.75;;
30872;SDS011;17579;42.690;2.586;2023-06-26T14:35:40;4.03;;;3.55;;
30872;SDS011;17579;42.690;2.586;2023-06-26T14:38:06;3.85;;;3.55;;
30872;SDS011;17579;42.690;2.586;2023-06-26T14:40:32;3.83;;;3.33;;
30872;SDS011;17579;42.690;2.586;2023-06-26T14:43:25;3.70;;;3.40;;
30872;SDS011;17579;42.690;2.586;2023-06-26T14:46:09;3.15;;;2.80;;
30872;SDS011;17579;42.690;2.586;2023-06-26T14:48:37;4.00;;;3.00;;
30872;SDS011;17579;42.690;2.586;2023-06-26T14:51:06;4.40;;;3.28;;
30872;SDS011;17579;42.690;2.586;2023-06-26T14:53:34;3.72;;;3.15;;
30872;SDS011;17579;42.690;2.586;2023-06-26T14:56:00;3.38;;;3.13;;
30872;SDS011;17579;42.690;2.586;2023-06-26T14:58:30;3.20;;;2.92;;
30872;SDS011;17579;42.690;2.586;2023-06-26T15:01:05;3.42;;;3.17;;
30872;SDS011;17579;42.690;2.586;2023-06-26T15:03:30;2.90;;;2.70;;
30872;SDS011;17579;42.690;2.586;2023-06-26T15:06:05;3.47;;;2.90;;
30872;SDS011;17579;42.690;2.586;2023-06-26T15:08:34;2.92;;;2.72;;
30872;SDS011;17579;42.690;2.586;2023-06-26T15:11:05;2.90;;;2.70;;
30872;SDS011;17579;42.690;2.586;2023-06-26T15:13:33;2.90;;;2.70;;
30872;SDS011;17579;42.690;2.586;2023-06-26T15:16:04;2.63;;;2.42;;
30872;SDS011;17579;42.690;2.586;2023-06-26T15:18:36;3.47;;;3.17;;
30872;SDS011;17579;42.690;2.586;2023-06-26T15:21:05;2.83;;;2.63;;
30872;SDS011;17579;42.690;2.586;2023-06-26T15:23:56;3.05;;;2.85;;
30872;SDS011;17579;42.690;2.586;2023-06-26T15:26:21;3.25;;;2.95;;
30872;SDS011;17579;42.690;2.586;2023-06-26T15:31:38;3.17;;;2.88;;
30872;SDS011;17579;42.690;2.586;2023-06-26T15:34:08;4.32;;;2.95;;
30872;SDS011;17579;42.690;2.586;2023-06-26T15:36:52;2.90;;;2.60;;
30872;SDS011;17579;42.690;2.586;2023-06-26T15:39:21;3.20;;;2.90;;
30872;SDS011;17579;42.690;2.586;2023-06-26T15:41:52;3.90;;;3.03;;
30872;SDS011;17579;42.690;2.586;2023-06-26T15:44:24;3.80;;;3.05;;
30872;SDS011;17579;42.690;2.586;2023-06-26T15:46:54;4.30;;;2.97;;
30872;SDS011;17579;42.690;2.586;2023-06-26T15:49:26;3.33;;;3.03;;
30872;SDS011;17579;42.690;2.586;2023-06-26T15:51:56;3.97;;;3.15;;
30872;SDS011;17579;42.690;2.586;2023-06-26T15:54:32;4.95;;;3.65;;
30872;SDS011;17579;42.690;2.586;2023-06-26T15:57:00;7.05;;;3.20;;
30872;SDS011;17579;42.690;2.586;2023-06-26T15:59:35;3.90;;;3.30;;
30872;SDS011;17579;42.690;2.586;2023-06-26T16:02:10;4.40;;;3.25;;
30872;SDS011;17579;42.690;2.586;2023-06-26T16:04:36;4.63;;;3.40;;
30872;SDS011;17579;42.690;2.586;2023-06-26T16:07:14;3.75;;;3.22;;
30872;SDS011;17579;42.690;2.586;2023-06-26T16:09:40;3.10;;;2.85;;
30872;SDS011;17579;42.690;2.586;2023-06-26T16:12:06;3.40;;;3.20;;
30872;SDS011;17579;42.690;2.586;2023-06-26T16:14:32;4.18;;;3.60;;
30872;SDS011;17579;42.690;2.586;2023-06-26T16:17:06;3.63;;;3.20;;